Time;durP1;ratioP1;P1;durP2;ratioP2;P2;SDS_P1;SDS_P2;PMS_P1;PMS_P2;Temp;Humidity;BMP_temperature;BMP_pressure;BME280_temperature;BME280_humidity;BME280_pressure;Samples;Min_cycle;Max_cycle;Signal;HPM_P1;HPM_P2
2022/02/28 00:07:02;;;;;;;14.00;7.90;;;;;;;-3.59;70.99;101300.91;447416;1270;142269;-63
2022/02/28 00:17:09;;;;;;;12.10;6.80;;;;;;;-3.68;71.25;101294.90;447390;1271;143256;-64
2022/02/28 00:27:15;;;;;;;13.60;7.70;;;;;;;-3.77;71.45;101290.75;434753;1271;144287;-63
2022/02/28 00:37:21;;;;;;;13.40;6.80;;;;;;;-3.88;71.75;101280.92;443896;1271;143400;-62
2022/02/28 00:47:27;;;;;;;12.00;7.20;;;;;;;-3.97;71.97;101276.78;430076;1271;142090;-63
2022/02/28 00:57:33;;;;;;;15.30;7.60;;;;;;;-4.01;72.31;101283.04;445665;1270;143474;-63
2022/02/28 01:07:40;;;;;;;10.80;6.20;;;;;;;-4.03;72.40;101273.40;447386;1269;142896;-63
2022/02/28 01:17:46;;;;;;;13.10;7.60;;;;;;;-4.10;72.28;101272.20;445554;1271;143095;-64
2022/02/28 01:27:52;;;;;;;13.90;7.60;;;;;;;-4.22;72.62;101265.95;446448;1271;142245;-64
2022/02/28 01:37:58;;;;;;;14.10;7.70;;;;;;;-4.27;72.85;101271.48;442970;1271;142315;-62
2022/02/28 01:48:02;;;;;;;;;;;;;;;-4.32;73.04;101275.13;446247;1271;161625;-64
2022/02/28 01:58:08;;;;;;;11.60;6.50;;;;;;;-4.40;73.17;101265.00;447086;1272;129366;-66
2022/02/28 02:08:14;;;;;;;11.40;7.10;;;;;;;-4.46;73.46;101251.02;447065;1271;142695;-63
2022/02/28 02:18:20;;;;;;;9.70;5.90;;;;;;;-4.56;73.50;101250.95;445966;1273;143875;-64
2022/02/28 02:28:26;;;;;;;10.80;6.00;;;;;;;-4.63;73.92;101261.02;446713;1272;143961;-63
2022/02/28 02:38:35;;;;;;;9.90;6.80;;;;;;;-4.75;73.89;101256.61;446813;1271;305083;-64
2022/02/28 02:48:41;;;;;;;14.70;7.80;;;;;;;-4.84;74.32;101259.46;446434;1270;142662;-64
2022/02/28 02:58:47;;;;;;;12.30;6.90;;;;;;;-4.91;74.42;101269.88;447196;1270;147460;-63
2022/02/28 03:08:52;;;;;;;9.90;7.20;;;;;;;-4.99;74.76;101268.30;431056;1271;142683;-62
2022/02/28 03:18:59;;;;;;;9.90;6.20;;;;;;;-5.09;74.80;101266.66;435098;1272;142558;-63
2022/02/28 03:29:06;;;;;;;9.60;7.10;;;;;;;-5.19;75.03;101262.47;432705;1273;142163;-63
2022/02/28 03:39:12;;;;;;;11.30;6.00;;;;;;;-5.32;75.35;101270.48;437669;1271;142538;-62
2022/02/28 03:49:19;;;;;;;9.80;6.00;;;;;;;-5.38;75.50;101274.58;436846;1270;144521;-63
2022/02/28 03:59:25;;;;;;;11.20;7.00;;;;;;;-5.41;75.82;101266.46;447076;1271;141824;-63
2022/02/28 04:09:34;;;;;;;11.00;6.60;;;;;;;-5.50;75.90;101262.80;431365;1271;143012;-63
2022/02/28 04:19:41;;;;;;;14.70;7.90;;;;;;;-5.54;76.30;101273.27;446812;1271;144360;-64
2022/02/28 04:29:47;;;;;;;11.80;7.10;;;;;;;-5.59;76.43;101273.80;446930;1270;143509;-63
2022/02/28 04:39:51;;;;;;;;;;;;;;;-5.65;76.61;101274.66;443521;1271;144617;-63
2022/02/28 04:49:57;;;;;;;12.10;7.90;;;;;;;-5.71;76.82;101274.14;443463;1272;129073;-63
2022/02/28 05:00:03;;;;;;;11.40;8.10;;;;;;;-5.79;76.99;101275.95;446351;1271;143885;-63
2022/02/28 05:10:10;;;;;;;12.10;7.10;;;;;;;-5.77;77.14;101284.20;447086;1271;144040;-63
2022/02/28 05:20:18;;;;;;;12.20;6.60;;;;;;;-5.78;77.35;101285.55;446993;1271;194042;-63
2022/02/28 05:30:24;;;;;;;13.40;7.60;;;;;;;-5.74;77.58;101291.10;446116;1270;143339;-62
2022/02/28 05:40:28;;;;;;;;;;;;;;;-5.68;77.70;101299.98;444614;1271;142322;-63
2022/02/28 05:50:34;;;;;;;12.10;7.70;;;;;;;-5.62;77.68;101311.24;447303;1269;128826;-63
2022/02/28 06:00:40;;;;;;;12.50;7.40;;;;;;;-5.50;77.74;101324.09;446371;1271;145831;-63
2022/02/28 06:10:44;;;;;;;;;;;;;;;-5.19;77.77;101323.77;447042;1271;144008;-62
2022/02/28 06:20:50;;;;;;;12.70;7.80;;;;;;;-4.83;77.53;101331.57;447347;1271;130085;-64
2022/02/28 06:30:57;;;;;;;13.20;8.00;;;;;;;-2.35;77.17;101343.28;446268;1269;143554;-64
2022/02/28 06:41:03;;;;;;;10.40;7.30;;;;;;;2.81;71.94;101342.52;447020;1271;141938;-64
2022/02/28 06:51:08;;;;;;;9.60;8.10;;;;;;;6.18;66.08;101340.05;446257;1271;143678;-65
2022/02/28 07:01:14;;;;;;;12.20;7.20;;;;;;;9.34;62.36;101339.55;447149;1271;142292;-63
2022/02/28 07:11:20;;;;;;;9.30;7.80;;;;;;;11.82;57.18;101348.65;447190;1271;141978;-64
2022/02/28 07:21:26;;;;;;;9.30;6.20;;;;;;;13.52;54.10;101349.40;446342;1271;142978;-64
2022/02/28 07:31:32;;;;;;;13.10;8.10;;;;;;;16.30;50.88;101355.44;447147;1271;142048;-64
2022/02/28 07:41:38;;;;;;;12.00;7.00;;;;;;;18.36;48.07;101350.65;445432;1271;143094;-64
2022/02/28 07:51:44;;;;;;;7.50;6.50;;;;;;;20.04;44.79;101348.18;431918;1271;141768;-64
2022/02/28 08:01:50;;;;;;;6.90;5.40;;;;;;;21.74;40.65;101363.09;447218;1271;142212;-63
2022/02/28 08:11:56;;;;;;;8.40;5.80;;;;;;;20.84;37.70;101363.48;447308;1271;142381;-64
2022/02/28 08:22:02;;;;;;;7.30;4.20;;;;;;;21.34;36.20;101373.75;446800;1270;144060;-63
2022/02/28 08:32:09;;;;;;;7.00;4.40;;;;;;;21.38;33.94;101385.90;447053;1271;141377;-67
2022/02/28 08:42:15;;;;;;;10.10;6.00;;;;;;;21.27;32.83;101392.01;446164;1271;144029;-65
2022/02/28 08:52:21;;;;;;;7.30;4.40;;;;;;;21.47;32.08;101385.91;443878;1271;142173;-70
2022/02/28 09:02:27;;;;;;;4.20;3.10;;;;;;;21.46;30.67;101394.20;446918;1273;141840;-68
2022/02/28 09:12:34;;;;;;;4.80;3.50;;;;;;;18.64;29.62;101401.63;446290;1271;142504;-71
2022/02/28 09:22:40;;;;;;;7.10;4.40;;;;;;;19.17;30.59;101404.27;446985;1272;145426;-69
2022/02/28 09:32:47;;;;;;;8.70;3.60;;;;;;;18.61;30.11;101407.52;446165;1270;141633;-68
2022/02/28 09:42:54;;;;;;;5.30;4.10;;;;;;;11.18;32.28;101428.29;446607;1270;142288;-69
2022/02/28 09:53:00;;;;;;;8.80;4.10;;;;;;;7.23;35.64;101439.02;443605;1270;141794;-67
2022/02/28 10:03:09;;;;;;;7.70;4.20;;;;;;;4.62;38.80;101451.58;429891;1271;141806;-69
2022/02/28 10:13:16;;;;;;;5.70;3.60;;;;;;;3.11;41.56;101460.51;447168;1270;140426;-69
2022/02/28 10:23:25;;;;;;;6.00;3.80;;;;;;;2.34;43.26;101461.14;434300;1271;140766;-70
2022/02/28 10:33:36;;;;;;;6.50;4.10;;;;;;;1.90;43.92;101460.40;443905;1272;141445;-68
2022/02/28 10:43:44;;;;;;;5.60;3.90;;;;;;;1.48;44.78;101465.46;447019;1272;141167;-69
2022/02/28 10:54:06;;;;;;;6.30;4.30;;;;;;;1.40;45.77;101464.92;447234;1271;140705;-69
2022/02/28 11:04:13;;;;;;;6.90;5.40;;;;;;;1.58;45.46;101460.14;447089;1273;140909;-67
2022/02/28 11:14:20;;;;;;;7.00;3.70;;;;;;;2.04;45.80;101460.95;445726;1271;140978;-68
2022/02/28 11:24:26;;;;;;;5.70;4.90;;;;;;;2.54;45.98;101462.70;437240;1273;144780;-71
2022/02/28 11:34:32;;;;;;;6.20;4.10;;;;;;;2.38;46.29;101465.64;447154;1272;180168;-74
2022/02/28 11:44:53;;;;;;;6.10;4.10;;;;;;;2.14;46.92;101465.27;440863;1272;141251;-72
2022/02/28 11:55:02;;;;;;;5.70;3.20;;;;;;;2.07;47.07;101456.30;441897;1273;141850;-74
2022/02/28 12:05:42;;;;;;;5.90;3.20;;;;;;;2.44;47.10;101449.04;447174;1271;141065;-75
2022/02/28 12:15:49;;;;;;;4.20;3.10;;;;;;;2.38;46.79;101461.84;434492;1273;142050;-74
2022/02/28 12:26:08;;;;;;;7.80;3.60;;;;;;;2.22;47.22;101465.80;446862;1272;142317;-61
2022/02/28 12:36:16;;;;;;;5.60;2.20;;;;;;;2.14;46.94;101472.54;440990;1271;141917;-62
2022/02/28 12:46:24;;;;;;;5.00;3.50;;;;;;;2.12;46.23;101470.45;445072;1271;141542;-63
2022/02/28 12:56:30;;;;;;;5.00;2.20;;;;;;;2.09;45.73;101475.13;447176;1271;141430;-62
2022/02/28 13:06:38;;;;;;;2.40;1.90;;;;;;;2.22;44.21;101479.45;440237;1273;141216;-60
2022/02/28 13:16:46;;;;;;;4.50;2.50;;;;;;;2.33;43.92;101472.55;446786;1273;141697;-64
2022/02/28 13:26:54;;;;;;;3.50;2.30;;;;;;;2.21;44.77;101469.61;446974;1271;141962;-64
2022/02/28 13:37:01;;;;;;;3.00;1.90;;;;;;;2.00;44.54;101466.98;441916;1271;141679;-60
2022/02/28 13:47:10;;;;;;;;;;;;;;;2.01;44.04;101474.77;432887;1271;142383;-60
2022/02/28 13:57:17;;;;;;;3.60;1.90;;;;;;;1.88;44.60;101473.86;446459;1272;128139;-63
2022/02/28 14:07:24;;;;;;;4.50;2.40;;;;;;;1.84;44.13;101476.11;447374;1271;140460;-64
2022/02/28 14:17:31;;;;;;;3.20;2.40;;;;;;;1.76;44.09;101473.48;447354;1269;141184;-68
2022/02/28 14:27:37;;;;;;;7.70;2.80;;;;;;;1.77;44.09;101478.50;437530;1270;140704;-67
2022/02/28 14:37:43;;;;;;;4.50;2.80;;;;;;;1.76;44.08;101481.27;430984;1271;247406;-61
2022/02/28 14:47:49;;;;;;;9.30;3.10;;;;;;;1.67;44.10;101483.65;445250;1270;140936;-64
2022/02/28 14:57:55;;;;;;;6.30;2.50;;;;;;;1.56;44.22;101487.92;446465;1271;142028;-65
2022/02/28 15:08:03;;;;;;;5.60;3.10;;;;;;;1.51;44.52;101481.19;447251;1271;141353;-63
2022/02/28 15:18:09;;;;;;;4.50;3.10;;;;;;;1.44;44.64;101484.27;446339;1269;142744;-67
2022/02/28 15:28:15;;;;;;;5.20;3.30;;;;;;;1.29;44.83;101484.36;447224;1270;141620;-63
2022/02/28 15:38:21;;;;;;;11.20;4.20;;;;;;;1.10;45.13;101485.47;442763;1271;140993;-65
2022/02/28 15:48:27;;;;;;;8.00;3.50;;;;;;;0.89;45.45;101494.31;445459;1271;140659;-59
2022/02/28 15:58:35;;;;;;;7.90;3.80;;;;;;;0.69;46.01;101495.55;447339;1271;140628;-67
2022/02/28 16:08:41;;;;;;;10.30;5.50;;;;;;;0.43;46.44;101492.59;447448;1270;140450;-66
2022/02/28 16:18:47;;;;;;;6.20;3.90;;;;;;;0.22;46.39;101501.19;446588;1271;141599;-68
2022/02/28 16:28:53;;;;;;;8.60;5.00;;;;;;;-0.08;46.83;101503.81;447396;1270;141128;-67
2022/02/28 16:38:59;;;;;;;9.60;6.40;;;;;;;-0.43;47.16;101503.93;447397;1271;141294;-71
2022/02/28 16:49:05;;;;;;;19.20;10.00;;;;;;;-0.73;47.80;101511.81;446851;1271;141921;-67
2022/02/28 16:59:11;;;;;;;18.90;10.10;;;;;;;-1.07;48.41;101516.84;433768;1270;141045;-65
2022/02/28 17:09:17;;;;;;;38.80;19.20;;;;;;;-1.38;49.03;101515.66;435208;1270;142391;-64
2022/02/28 17:19:23;;;;;;;23.30;11.40;;;;;;;-1.68;49.57;101515.16;447272;1270;141826;-63
2022/02/28 17:29:29;;;;;;;22.80;12.70;;;;;;;-1.82;50.24;101516.98;443917;1271;142617;-63
2022/02/28 17:39:36;;;;;;;27.10;11.70;;;;;;;-1.82;50.95;101518.70;428971;1271;143284;-62
2022/02/28 17:49:42;;;;;;;17.60;11.40;;;;;;;-1.83;51.57;101521.42;429511;1273;142155;-62
2022/02/28 17:59:48;;;;;;;10.90;6.90;;;;;;;-1.86;52.07;101530.64;429855;1271;141921;-62
2022/02/28 18:09:54;;;;;;;20.50;10.50;;;;;;;-1.92;52.44;101538.76;430838;1270;141905;-63
2022/02/28 18:19:59;;;;;;;27.30;12.50;;;;;;;-2.02;52.70;101548.04;447229;1270;142343;-63
2022/02/28 18:30:07;;;;;;;50.00;22.60;;;;;;;-2.14;52.76;101551.21;443676;1269;142433;-62
2022/02/28 18:40:15;;;;;;;24.70;13.60;;;;;;;-2.31;53.20;101549.69;443351;1271;141686;-63
2022/02/28 18:50:22;;;;;;;27.70;12.70;;;;;;;-2.41;53.43;101550.84;447346;1270;142171;-62
2022/02/28 19:00:28;;;;;;;30.70;15.10;;;;;;;-2.45;53.63;101557.28;446363;1270;142360;-63
2022/02/28 19:10:34;;;;;;;32.00;13.50;;;;;;;-2.53;53.72;101558.99;440223;1270;142488;-65
2022/02/28 19:20:40;;;;;;;22.70;14.20;;;;;;;-2.70;54.05;101556.42;445485;1269;144177;-64
2022/02/28 19:30:47;;;;;;;28.50;13.60;;;;;;;-2.74;54.52;101558.70;445915;1271;141877;-64
2022/02/28 19:41:12;;;;;;;30.80;13.80;;;;;;;-2.73;54.85;101556.34;446643;1270;141624;-65
2022/02/28 19:51:20;;;;;;;18.80;10.80;;;;;;;-2.72;55.01;101562.19;445862;1270;142955;-65
2022/02/28 20:01:26;;;;;;;23.00;11.80;;;;;;;-2.67;55.20;101564.70;446732;1271;143197;-62
2022/02/28 20:11:32;;;;;;;24.40;13.50;;;;;;;-2.59;55.24;101566.25;446094;1270;142362;-62
2022/02/28 20:21:39;;;;;;;28.70;15.80;;;;;;;-2.66;55.21;101563.19;435674;1271;141831;-62
2022/02/28 20:31:45;;;;;;;24.40;15.40;;;;;;;-2.81;55.38;101558.22;446931;1271;141912;-63
2022/02/28 20:41:54;;;;;;;19.60;12.50;;;;;;;-2.98;55.75;101562.45;447229;1270;141311;-63
2022/02/28 20:52:00;;;;;;;18.20;11.60;;;;;;;-3.03;55.90;101560.95;446436;1270;143261;-63
2022/02/28 21:02:07;;;;;;;16.80;9.40;;;;;;;-3.07;55.94;101565.83;447357;1271;142353;-63
2022/02/28 21:12:13;;;;;;;18.20;10.30;;;;;;;-3.11;56.03;101567.46;446698;1269;142219;-63
2022/02/28 21:22:20;;;;;;;20.20;12.30;;;;;;;-3.16;56.12;101562.54;447296;1270;141457;-64
2022/02/28 21:32:26;;;;;;;24.50;13.40;;;;;;;-3.32;56.25;101564.39;445706;1270;141170;-63
2022/02/28 21:42:32;;;;;;;24.50;14.60;;;;;;;-3.47;56.59;101561.61;431822;1270;144217;-62
2022/02/28 21:52:38;;;;;;;25.60;13.70;;;;;;;-3.64;57.09;101562.88;437754;1270;141272;-61
2022/02/28 22:02:43;;;;;;;26.00;14.40;;;;;;;-3.76;57.44;101574.36;444000;1270;144471;-64
2022/02/28 22:12:50;;;;;;;26.40;14.90;;;;;;;-3.69;57.66;101574.41;445963;1271;142037;-63
2022/02/28 22:23:00;;;;;;;30.30;17.10;;;;;;;-3.71;57.61;101579.66;447263;1268;142894;-64
2022/02/28 22:33:06;;;;;;;25.50;13.40;;;;;;;-3.73;57.66;101583.35;446554;1269;141582;-63
2022/02/28 22:43:12;;;;;;;20.30;13.30;;;;;;;-3.71;57.80;101584.94;447303;1269;142294;-63
2022/02/28 22:53:19;;;;;;;29.50;15.50;;;;;;;-3.78;58.04;101586.81;447416;1270;143042;-63
2022/02/28 23:24:11;;;;;;;27.20;17.50;;;;;;;-4.20;59.11;101575.05;438546;1270;143104;-64
2022/02/28 23:34:16;;;;;;;;;;;;;;;-4.26;59.41;101576.78;431472;1273;141255;-63
2022/02/28 23:44:23;;;;;;;28.00;15.80;;;;;;;-4.35;59.92;101581.96;447443;1271;128274;-65
2022/02/28 23:54:30;;;;;;;21.90;13.20;;;;;;;-4.36;60.29;101580.09;441588;1271;142414;-64
